sensor_id;sensor_type;location;lat;lon;timestamp;pressure;altitude;pressure_sealevel;temperature;humidity
65131;BME280;51709;54.912;8.316;2023-05-09T00:03:16;101888.16;;;12.74;52.96
65131;BME280;51709;54.912;8.316;2023-05-09T00:08:36;101891.59;;;12.73;53.22
65131;BME280;51709;54.912;8.316;2023-05-09T00:13:57;101889.94;;;12.69;53.43
65131;BME280;51709;54.912;8.316;2023-05-09T00:19:17;101884.00;;;12.64;53.73
65131;BME280;51709;54.912;8.316;2023-05-09T00:24:38;101877.13;;;12.63;53.75
65131;BME280;51709;54.912;8.316;2023-05-09T00:29:58;101875.47;;;12.60;53.69
65131;BME280;51709;54.912;8.316;2023-05-09T00:35:19;101866.94;;;12.57;53.80
65131;BME280;51709;54.912;8.316;2023-05-09T00:40:40;101859.28;;;12.52;53.84
65131;BME280;51709;54.912;8.316;2023-05-09T00:46:01;101846.44;;;12.47;53.92
65131;BME280;51709;54.912;8.316;2023-05-09T00:51:22;101832.78;;;12.42;53.95
65131;BME280;51709;54.912;8.316;2023-05-09T00:56:43;101830.25;;;12.36;54.29
65131;BME280;51709;54.912;8.316;2023-05-09T01:02:04;101827.75;;;12.31;54.39
65131;BME280;51709;54.912;8.316;2023-05-09T01:07:40;101818.31;;;12.30;54.41
65131;BME280;51709;54.912;8.316;2023-05-09T01:13:09;101808.09;;;12.27;54.60
65131;BME280;51709;54.912;8.316;2023-05-09T01:18:51;101803.88;;;12.20;54.84
65131;BME280;51709;54.912;8.316;2023-05-09T01:24:32;101805.66;;;12.15;54.94
65131;BME280;51709;54.912;8.316;2023-05-09T01:30:02;101798.88;;;12.09;54.92
65131;BME280;51709;54.912;8.316;2023-05-09T01:35:25;101791.16;;;12.08;54.80
65131;BME280;51709;54.912;8.316;2023-05-09T01:40:48;101797.22;;;12.04;55.12
65131;BME280;51709;54.912;8.316;2023-05-09T01:46:11;101794.72;;;11.99;55.16
65131;BME280;51709;54.912;8.316;2023-05-09T01:51:33;101787.81;;;11.99;55.31
65131;BME280;51709;54.912;8.316;2023-05-09T01:56:56;101775.00;;;11.98;55.46
65131;BME280;51709;54.912;8.316;2023-05-09T02:02:18;101777.56;;;11.95;55.79
65131;BME280;51709;54.912;8.316;2023-05-09T02:07:40;101763.84;;;11.93;55.73
65131;BME280;51709;54.912;8.316;2023-05-09T02:13:01;101769.03;;;11.91;55.55
65131;BME280;51709;54.912;8.316;2023-05-09T02:18:22;101766.47;;;11.90;55.67
65131;BME280;51709;54.912;8.316;2023-05-09T02:23:42;101754.47;;;11.88;55.57
65131;BME280;51709;54.912;8.316;2023-05-09T02:29:05;101747.66;;;11.87;55.63
65131;BME280;51709;54.912;8.316;2023-05-09T02:34:26;101748.50;;;11.86;55.63
65131;BME280;51709;54.912;8.316;2023-05-09T02:39:49;101746.81;;;11.85;55.64
65131;BME280;51709;54.912;8.316;2023-05-09T02:45:10;101747.69;;;11.84;55.45
65131;BME280;51709;54.912;8.316;2023-05-09T02:50:31;101743.41;;;11.83;55.75
65131;BME280;51709;54.912;8.316;2023-05-09T02:55:51;101743.47;;;11.79;55.86
65131;BME280;51709;54.912;8.316;2023-05-09T03:01:13;101732.34;;;11.75;55.87
65131;BME280;51709;54.912;8.316;2023-05-09T03:06:33;101722.94;;;11.74;55.89
65131;BME280;51709;54.912;8.316;2023-05-09T03:11:54;101723.84;;;11.70;55.85
65131;BME280;51709;54.912;8.316;2023-05-09T03:17:16;101704.16;;;11.67;56.01
65131;BME280;51709;54.912;8.316;2023-05-09T03:22:40;101710.16;;;11.65;55.95
65131;BME280;51709;54.912;8.316;2023-05-09T03:28:04;101711.91;;;11.61;55.99
65131;BME280;51709;54.912;8.316;2023-05-09T03:33:25;101698.28;;;11.56;55.90
65131;BME280;51709;54.912;8.316;2023-05-09T03:38:46;101693.19;;;11.51;55.80
65131;BME280;51709;54.912;8.316;2023-05-09T03:44:07;101691.50;;;11.50;56.21
65131;BME280;51709;54.912;8.316;2023-05-09T03:49:28;101699.22;;;11.49;56.35
65131;BME280;51709;54.912;8.316;2023-05-09T03:54:49;101691.56;;;11.46;56.39
65131;BME280;51709;54.912;8.316;2023-05-09T04:00:11;101682.13;;;11.45;56.60
65131;BME280;51709;54.912;8.316;2023-05-09T04:05:40;101687.25;;;11.46;56.47
65131;BME280;51709;54.912;8.316;2023-05-09T04:11:06;101682.94;;;11.47;56.67
65131;BME280;51709;54.912;8.316;2023-05-09T04:16:30;101688.09;;;11.48;56.87
65131;BME280;51709;54.912;8.316;2023-05-09T04:21:52;101670.97;;;11.47;56.74
65131;BME280;51709;54.912;8.316;2023-05-09T04:27:13;101664.94;;;11.47;57.00
65131;BME280;51709;54.912;8.316;2023-05-09T04:32:34;101675.19;;;11.50;57.03
65131;BME280;51709;54.912;8.316;2023-05-09T04:37:56;101660.63;;;11.52;57.02
65131;BME280;51709;54.912;8.316;2023-05-09T04:43:18;101660.63;;;11.52;57.22
65131;BME280;51709;54.912;8.316;2023-05-09T04:56:12;101658.72;;;11.69;56.89
65131;BME280;51709;54.912;8.316;2023-05-09T05:01:32;101650.00;;;11.78;56.99
65131;BME280;51709;54.912;8.316;2023-05-09T05:06:53;101646.47;;;11.87;56.96
65131;BME280;51709;54.912;8.316;2023-05-09T05:12:15;101652.41;;;11.92;56.84
65131;BME280;51709;54.912;8.316;2023-05-09T05:17:37;101645.47;;;11.97;56.68
65131;BME280;51709;54.912;8.316;2023-05-09T05:22:59;101635.19;;;12.00;56.91
65131;BME280;51709;54.912;8.316;2023-05-09T05:28:20;101633.44;;;12.01;56.71
65131;BME280;51709;54.912;8.316;2023-05-09T05:33:41;101625.69;;;12.04;56.81
65131;BME280;51709;54.912;8.316;2023-05-09T05:39:03;101614.53;;;12.05;56.75
65131;BME280;51709;54.912;8.316;2023-05-09T05:44:24;101625.56;;;12.12;56.70
65131;BME280;51709;54.912;8.316;2023-05-09T05:49:45;101628.94;;;12.15;56.75
65131;BME280;51709;54.912;8.316;2023-05-09T05:55:06;101607.44;;;12.20;56.78
65131;BME280;51709;54.912;8.316;2023-05-09T06:00:27;101612.53;;;12.24;56.75
65131;BME280;51709;54.912;8.316;2023-05-09T06:05:54;101600.50;;;12.26;56.74
65131;BME280;51709;54.912;8.316;2023-05-09T06:11:16;101586.75;;;12.27;56.92
65131;BME280;51709;54.912;8.316;2023-05-09T06:16:37;101585.00;;;12.28;56.76
65131;BME280;51709;54.912;8.316;2023-05-09T06:21:58;101584.06;;;12.33;56.83
65131;BME280;51709;54.912;8.316;2023-05-09T06:27:19;101586.56;;;12.40;56.80
65131;BME280;51709;54.912;8.316;2023-05-09T06:32:39;101585.47;;;12.52;56.71
65131;BME280;51709;54.912;8.316;2023-05-09T06:38:00;101571.56;;;12.62;56.53
65131;BME280;51709;54.912;8.316;2023-05-09T06:43:20;101559.56;;;12.61;56.53
65131;BME280;51709;54.912;8.316;2023-05-09T06:48:42;101555.28;;;12.61;56.60
65131;BME280;51709;54.912;8.316;2023-05-09T06:54:03;101543.19;;;12.65;56.62
65131;BME280;51709;54.912;8.316;2023-05-09T06:59:24;101543.06;;;12.73;56.43
65131;BME280;51709;54.912;8.316;2023-05-09T07:04:44;101539.59;;;12.74;56.55
65131;BME280;51709;54.912;8.316;2023-05-09T07:10:05;101530.88;;;12.81;56.41
65131;BME280;51709;54.912;8.316;2023-05-09T07:15:31;101531.59;;;12.88;56.50
65131;BME280;51709;54.912;8.316;2023-05-09T07:21:02;101521.94;;;12.99;56.32
65131;BME280;51709;54.912;8.316;2023-05-09T07:26:22;101512.19;;;13.14;56.11
65131;BME280;51709;54.912;8.316;2023-05-09T07:31:43;101509.50;;;13.18;56.13
65131;BME280;51709;54.912;8.316;2023-05-09T07:37:04;101507.50;;;13.33;56.15
65131;BME280;51709;54.912;8.316;2023-05-09T07:42:25;101494.97;;;13.56;55.82
65131;BME280;51709;54.912;8.316;2023-05-09T07:47:45;101485.72;;;13.84;55.62
65131;BME280;51709;54.912;8.316;2023-05-09T07:53:06;101480.91;;;14.05;55.31
65131;BME280;51709;54.912;8.316;2023-05-09T07:58:27;101475.25;;;14.23;55.13
65131;BME280;51709;54.912;8.316;2023-05-09T08:03:47;101472.25;;;14.40;54.91
65131;BME280;51709;54.912;8.316;2023-05-09T08:09:08;101469.50;;;14.46;55.10
65131;BME280;51709;54.912;8.316;2023-05-09T08:14:30;101462.25;;;14.59;54.71
65131;BME280;51709;54.912;8.316;2023-05-09T08:19:50;101453.34;;;14.71;54.54
65131;BME280;51709;54.912;8.316;2023-05-09T08:25:11;101462.59;;;14.78;54.27
65131;BME280;51709;54.912;8.316;2023-05-09T08:30:35;101446.38;;;15.03;54.27
65131;BME280;51709;54.912;8.316;2023-05-09T08:35:56;101442.91;;;15.33;53.61
65131;BME280;51709;54.912;8.316;2023-05-09T08:41:17;101430.53;;;15.69;53.34
65131;BME280;51709;54.912;8.316;2023-05-09T08:46:42;101434.91;;;15.94;52.92
65131;BME280;51709;54.912;8.316;2023-05-09T08:52:04;101436.13;;;16.09;52.68
65131;BME280;51709;54.912;8.316;2023-05-09T08:57:26;101434.47;;;16.32;52.21
65131;BME280;51709;54.912;8.316;2023-05-09T09:02:47;101440.28;;;16.39;52.06
65131;BME280;51709;54.912;8.316;2023-05-09T09:08:10;101439.13;;;16.22;52.47
65131;BME280;51709;54.912;8.316;2023-05-09T09:13:31;101414.75;;;16.28;52.64
65131;BME280;51709;54.912;8.316;2023-05-09T09:18:56;101423.44;;;16.51;52.29
65131;BME280;51709;54.912;8.316;2023-05-09T09:24:21;101404.47;;;16.74;52.01
65131;BME280;51709;54.912;8.316;2023-05-09T09:29:42;101413.00;;;17.00;51.77
65131;BME280;51709;54.912;8.316;2023-05-09T09:35:08;101409.09;;;17.12;51.68
65131;BME280;51709;54.912;8.316;2023-05-09T09:40:29;101395.44;;;17.29;51.49
65131;BME280;51709;54.912;8.316;2023-05-09T09:45:52;101376.28;;;17.53;51.16
65131;BME280;51709;54.912;8.316;2023-05-09T09:51:13;101386.84;;;17.90;50.83
65131;BME280;51709;54.912;8.316;2023-05-09T09:56:42;101367.75;;;18.31;50.00
65131;BME280;51709;54.912;8.316;2023-05-09T10:02:05;101363.34;;;18.52;49.52
65131;BME280;51709;54.912;8.316;2023-05-09T10:07:32;101355.69;;;18.68;49.61
65131;BME280;51709;54.912;8.316;2023-05-09T10:12:56;101358.84;;;19.12;49.00
65131;BME280;51709;54.912;8.316;2023-05-09T10:18:17;101347.06;;;19.57;48.73
65131;BME280;51709;54.912;8.316;2023-05-09T10:23:44;101331.50;;;19.73;48.28
65131;BME280;51709;54.912;8.316;2023-05-09T10:29:10;101334.69;;;19.78;48.61
65131;BME280;51709;54.912;8.316;2023-05-09T10:34:31;101314.09;;;19.91;48.32
65131;BME280;51709;54.912;8.316;2023-05-09T10:39:55;101322.53;;;19.79;48.50
65131;BME280;51709;54.912;8.316;2023-05-09T10:45:17;101328.81;;;19.75;48.43
65131;BME280;51709;54.912;8.316;2023-05-09T10:50:39;101305.19;;;19.95;48.11
65131;BME280;51709;54.912;8.316;2023-05-09T10:56:01;101317.00;;;20.35;47.97
65131;BME280;51709;54.912;8.316;2023-05-09T11:06:54;101300.09;;;20.58;47.46
65131;BME280;51709;54.912;8.316;2023-05-09T11:12:19;101295.44;;;20.63;47.83
65131;BME280;51709;54.912;8.316;2023-05-09T11:17:41;101284.88;;;20.97;47.07
65131;BME280;51709;54.912;8.316;2023-05-09T11:23:03;101267.31;;;21.44;46.92
65131;BME280;51709;54.912;8.316;2023-05-09T11:28:34;101272.66;;;21.71;46.26
65131;BME280;51709;54.912;8.316;2023-05-09T11:33:59;101269.69;;;21.92;46.14
65131;BME280;51709;54.912;8.316;2023-05-09T11:39:24;101269.41;;;21.96;45.96
65131;BME280;51709;54.912;8.316;2023-05-09T11:44:44;101245.09;;;22.36;45.05
65131;BME280;51709;54.912;8.316;2023-05-09T11:50:08;101244.19;;;22.77;44.80
65131;BME280;51709;54.912;8.316;2023-05-09T11:55:29;101251.69;;;23.09;44.02
65131;BME280;51709;54.912;8.316;2023-05-09T12:00:52;101253.75;;;23.17;43.62
65131;BME280;51709;54.912;8.316;2023-05-09T12:06:14;101245.75;;;23.33;43.20
65131;BME280;51709;54.912;8.316;2023-05-09T12:11:35;101236.06;;;22.95;43.39
65131;BME280;51709;54.912;8.316;2023-05-09T12:16:57;101232.00;;;22.51;43.72
65131;BME280;51709;54.912;8.316;2023-05-09T12:22:17;101220.38;;;22.55;44.22
65131;BME280;51709;54.912;8.316;2023-05-09T12:27:40;101207.91;;;22.86;43.75
65131;BME280;51709;54.912;8.316;2023-05-09T12:33:01;101216.91;;;23.20;43.48
65131;BME280;51709;54.912;8.316;2023-05-09T12:38:21;101207.03;;;23.63;42.95
65131;BME280;51709;54.912;8.316;2023-05-09T12:43:47;101193.94;;;23.87;42.99
65131;BME280;51709;54.912;8.316;2023-05-09T12:49:19;101194.56;;;23.91;43.41
65131;BME280;51709;54.912;8.316;2023-05-09T12:54:44;101186.78;;;24.02;42.81
65131;BME280;51709;54.912;8.316;2023-05-09T13:00:07;101176.22;;;23.91;42.90
65131;BME280;51709;54.912;8.316;2023-05-09T13:05:30;101167.63;;;23.89;42.98
65131;BME280;51709;54.912;8.316;2023-05-09T13:10:51;101174.25;;;23.44;43.29
65131;BME280;51709;54.912;8.316;2023-05-09T13:16:27;101174.69;;;22.99;43.47
65131;BME280;51709;54.912;8.316;2023-05-09T13:21:48;101164.84;;;22.64;43.72
65131;BME280;51709;54.912;8.316;2023-05-09T13:27:08;101166.19;;;22.57;43.50
65131;BME280;51709;54.912;8.316;2023-05-09T13:32:30;101150.31;;;22.60;43.35
65131;BME280;51709;54.912;8.316;2023-05-09T13:37:51;101153.44;;;22.65;43.42
65131;BME280;51709;54.912;8.316;2023-05-09T13:43:11;101147.06;;;22.69;43.11
65131;BME280;51709;54.912;8.316;2023-05-09T13:48:31;101138.47;;;22.67;43.28
65131;BME280;51709;54.912;8.316;2023-05-09T13:53:52;101129.75;;;23.18;42.53
65131;BME280;51709;54.912;8.316;2023-05-09T13:59:13;101113.06;;;23.45;41.80
65131;BME280;51709;54.912;8.316;2023-05-09T14:04:34;101107.78;;;23.82;41.04
65131;BME280;51709;54.912;8.316;2023-05-09T14:09:54;101102.44;;;24.08;40.38
65131;BME280;51709;54.912;8.316;2023-05-09T14:15:35;101093.38;;;24.12;40.67
65131;BME280;51709;54.912;8.316;2023-05-09T14:20:55;101082.31;;;23.84;40.77
65131;BME280;51709;54.912;8.316;2023-05-09T14:26:16;101079.94;;;23.57;40.93
65131;BME280;51709;54.912;8.316;2023-05-09T14:31:37;101070.09;;;23.23;41.22
65131;BME280;51709;54.912;8.316;2023-05-09T14:43:56;101058.94;;;22.83;41.81
65131;BME280;51709;54.912;8.316;2023-05-09T14:49:17;101046.81;;;22.56;42.02
65131;BME280;51709;54.912;8.316;2023-05-09T14:54:38;101036.94;;;22.21;42.21
65131;BME280;51709;54.912;8.316;2023-05-09T14:59:58;101033.78;;;22.02;42.18
65131;BME280;51709;54.912;8.316;2023-05-09T15:05:36;101022.16;;;21.94;42.14
65131;BME280;51709;54.912;8.316;2023-05-09T15:10:57;101026.53;;;21.80;42.22
65131;BME280;51709;54.912;8.316;2023-05-09T15:16:18;101022.63;;;21.60;42.37
65131;BME280;51709;54.912;8.316;2023-05-09T15:21:39;101018.63;;;21.40;42.84
65131;BME280;51709;54.912;8.316;2023-05-09T15:26:59;101019.16;;;21.18;42.92
65131;BME280;51709;54.912;8.316;2023-05-09T15:32:20;101015.94;;;21.00;42.97
65131;BME280;51709;54.912;8.316;2023-05-09T15:37:40;101004.59;;;20.72;43.26
65131;BME280;51709;54.912;8.316;2023-05-09T15:43:01;101005.22;;;20.46;43.62
65131;BME280;51709;54.912;8.316;2023-05-09T15:48:30;101008.47;;;20.21;43.99
65131;BME280;51709;54.912;8.316;2023-05-09T15:53:51;101017.09;;;20.07;44.06
65131;BME280;51709;54.912;8.316;2023-05-09T15:59:11;101024.09;;;19.91;44.34
65131;BME280;51709;54.912;8.316;2023-05-09T16:04:32;101012.09;;;19.42;45.24
65131;BME280;51709;54.912;8.316;2023-05-09T16:09:52;101004.19;;;19.11;46.37
65131;BME280;51709;54.912;8.316;2023-05-09T16:15:13;101007.56;;;18.63;47.77
65131;BME280;51709;54.912;8.316;2023-05-09T16:20:33;101005.50;;;18.19;48.86
65131;BME280;51709;54.912;8.316;2023-05-09T16:25:53;101003.53;;;17.87;49.70
65131;BME280;51709;54.912;8.316;2023-05-09T16:31:14;101008.78;;;17.68;50.26
65131;BME280;51709;54.912;8.316;2023-05-09T16:36:34;100990.56;;;17.33;51.78
65131;BME280;51709;54.912;8.316;2023-05-09T16:41:57;100986.81;;;17.02;52.51
65131;BME280;51709;54.912;8.316;2023-05-09T16:47:17;100984.94;;;16.85;52.99
65131;BME280;51709;54.912;8.316;2023-05-09T16:52:38;100984.09;;;16.85;53.35
65131;BME280;51709;54.912;8.316;2023-05-09T16:57:59;100964.56;;;16.77;54.27
65131;BME280;51709;54.912;8.316;2023-05-09T17:03:19;100955.56;;;16.66;54.64
65131;BME280;51709;54.912;8.316;2023-05-09T17:08:40;100942.56;;;16.67;54.83
65131;BME280;51709;54.912;8.316;2023-05-09T17:14:01;100936.03;;;16.77;55.17
65131;BME280;51709;54.912;8.316;2023-05-09T17:19:22;100933.16;;;16.84;55.32
65131;BME280;51709;54.912;8.316;2023-05-09T17:24:43;100924.97;;;16.93;55.54
65131;BME280;51709;54.912;8.316;2023-05-09T17:30:04;100920.22;;;17.03;55.71
65131;BME280;51709;54.912;8.316;2023-05-09T17:35:25;100914.97;;;17.04;56.07
65131;BME280;51709;54.912;8.316;2023-05-09T17:40:45;100917.63;;;17.03;56.61
65131;BME280;51709;54.912;8.316;2023-05-09T17:46:06;100916.94;;;16.99;56.85
65131;BME280;51709;54.912;8.316;2023-05-09T17:51:27;100925.81;;;16.93;57.57
65131;BME280;51709;54.912;8.316;2023-05-09T17:56:50;100935.91;;;16.81;58.20
65131;BME280;51709;54.912;8.316;2023-05-09T18:02:14;100949.75;;;16.60;58.92
65131;BME280;51709;54.912;8.316;2023-05-09T18:07:38;100947.28;;;16.38;59.75
65131;BME280;51709;54.912;8.316;2023-05-09T18:12:58;100952.09;;;16.06;60.58
65131;BME280;51709;54.912;8.316;2023-05-09T18:18:19;100951.13;;;15.88;61.07
65131;BME280;51709;54.912;8.316;2023-05-09T18:23:40;100952.03;;;15.87;60.96
65131;BME280;51709;54.912;8.316;2023-05-09T18:29:00;100946.72;;;15.90;60.88
65131;BME280;51709;54.912;8.316;2023-05-09T18:34:21;100954.00;;;15.80;61.22
65131;BME280;51709;54.912;8.316;2023-05-09T18:39:42;100954.69;;;15.63;61.87
65131;BME280;51709;54.912;8.316;2023-05-09T18:45:02;100938.50;;;15.58;61.79
65131;BME280;51709;54.912;8.316;2023-05-09T18:50:26;100942.75;;;15.59;61.95
65131;BME280;51709;54.912;8.316;2023-05-09T18:55:46;100957.44;;;15.59;62.18
65131;BME280;51709;54.912;8.316;2023-05-09T19:01:08;100947.22;;;15.55;62.60
65131;BME280;51709;54.912;8.316;2023-05-09T19:06:31;100946.50;;;15.52;62.67
65131;BME280;51709;54.912;8.316;2023-05-09T19:11:54;100949.16;;;15.50;62.88
65131;BME280;51709;54.912;8.316;2023-05-09T19:17:16;100955.09;;;15.52;63.07
65131;BME280;51709;54.912;8.316;2023-05-09T19:22:37;100949.03;;;15.53;63.44
65131;BME280;51709;54.912;8.316;2023-05-09T19:28:00;100951.50;;;15.56;63.63
65131;BME280;51709;54.912;8.316;2023-05-09T19:33:21;100948.00;;;15.57;63.82
65131;BME280;51709;54.912;8.316;2023-05-09T19:38:41;100953.25;;;15.56;64.03
65131;BME280;51709;54.912;8.316;2023-05-09T19:44:02;100950.66;;;15.56;64.27
65131;BME280;51709;54.912;8.316;2023-05-09T19:49:25;100932.59;;;15.54;64.19
65131;BME280;51709;54.912;8.316;2023-05-09T19:54:45;100935.34;;;15.51;64.54
65131;BME280;51709;54.912;8.316;2023-05-09T20:00:07;100920.72;;;15.50;64.63
65131;BME280;51709;54.912;8.316;2023-05-09T20:05:28;100923.34;;;15.49;64.58
65131;BME280;51709;54.912;8.316;2023-05-09T20:10:48;100924.31;;;15.46;64.78
65131;BME280;51709;54.912;8.316;2023-05-09T20:16:09;100923.53;;;15.44;65.00
65131;BME280;51709;54.912;8.316;2023-05-09T20:21:30;100914.94;;;15.44;65.20
65131;BME280;51709;54.912;8.316;2023-05-09T20:26:52;100917.56;;;15.42;65.17
65131;BME280;51709;54.912;8.316;2023-05-09T20:32:15;100912.47;;;15.40;65.32
65131;BME280;51709;54.912;8.316;2023-05-09T20:37:36;100896.13;;;15.40;65.44
65131;BME280;51709;54.912;8.316;2023-05-09T20:42:56;100885.03;;;15.36;65.67
65131;BME280;51709;54.912;8.316;2023-05-09T20:48:17;100879.16;;;15.33;65.76
65131;BME280;51709;54.912;8.316;2023-05-09T20:53:38;100875.94;;;15.28;66.00
65131;BME280;51709;54.912;8.316;2023-05-09T20:58:59;100876.97;;;15.23;66.14
65131;BME280;51709;54.912;8.316;2023-05-09T21:04:20;100875.38;;;15.19;65.98
65131;BME280;51709;54.912;8.316;2023-05-09T21:09:41;100874.78;;;15.13;66.01
65131;BME280;51709;54.912;8.316;2023-05-09T21:15:01;100872.38;;;15.08;66.06
65131;BME280;51709;54.912;8.316;2023-05-09T21:20:22;100869.19;;;15.01;66.36
65131;BME280;51709;54.912;8.316;2023-05-09T21:25:43;100860.91;;;14.93;66.27
65131;BME280;51709;54.912;8.316;2023-05-09T21:31:04;100847.28;;;14.89;66.21
65131;BME280;51709;54.912;8.316;2023-05-09T21:36:24;100840.53;;;14.85;65.78
65131;BME280;51709;54.912;8.316;2023-05-09T21:41:46;100829.38;;;14.85;65.42
65131;BME280;51709;54.912;8.316;2023-05-09T21:47:06;100827.72;;;14.82;65.03
65131;BME280;51709;54.912;8.316;2023-05-09T21:52:27;100803.72;;;14.80;64.54
65131;BME280;51709;54.912;8.316;2023-05-09T21:57:48;100802.84;;;14.79;64.17
65131;BME280;51709;54.912;8.316;2023-05-09T22:03:08;100800.28;;;14.79;63.26
65131;BME280;51709;54.912;8.316;2023-05-09T22:08:29;100793.38;;;14.80;62.56
65131;BME280;51709;54.912;8.316;2023-05-09T22:13:49;100795.97;;;14.80;61.87
65131;BME280;51709;54.912;8.316;2023-05-09T22:19:09;100786.47;;;14.81;60.99
65131;BME280;51709;54.912;8.316;2023-05-09T22:24:30;100796.00;;;14.78;60.18
65131;BME280;51709;54.912;8.316;2023-05-09T22:29:51;100794.50;;;14.73;59.71
65131;BME280;51709;54.912;8.316;2023-05-09T22:35:11;100786.91;;;14.70;59.09
65131;BME280;51709;54.912;8.316;2023-05-09T22:40:32;100794.00;;;14.63;58.43
65131;BME280;51709;54.912;8.316;2023-05-09T22:45:53;100786.56;;;14.55;57.97
65131;BME280;51709;54.912;8.316;2023-05-09T22:51:14;100797.09;;;14.49;58.17
65131;BME280;51709;54.912;8.316;2023-05-09T22:56:34;100791.34;;;14.42;58.11
65131;BME280;51709;54.912;8.316;2023-05-09T23:01:55;100787.38;;;14.33;58.36
65131;BME280;51709;54.912;8.316;2023-05-09T23:07:17;100787.66;;;14.26;58.42
65131;BME280;51709;54.912;8.316;2023-05-09T23:12:37;100785.38;;;14.18;58.67
65131;BME280;51709;54.912;8.316;2023-05-09T23:17:57;100778.69;;;14.12;58.69
65131;BME280;51709;54.912;8.316;2023-05-09T23:23:18;100771.06;;;14.09;58.72
65131;BME280;51709;54.912;8.316;2023-05-09T23:28:39;100765.88;;;14.09;58.36
65131;BME280;51709;54.912;8.316;2023-05-09T23:34:00;100773.59;;;14.11;57.73
65131;BME280;51709;54.912;8.316;2023-05-09T23:39:20;100769.97;;;14.15;57.03
65131;BME280;51709;54.912;8.316;2023-05-09T23:44:41;100775.94;;;14.17;56.58
65131;BME280;51709;54.912;8.316;2023-05-09T23:50:02;100768.13;;;14.18;56.05
65131;BME280;51709;54.912;8.316;2023-05-09T23:55:22;100762.19;;;14.16;56.05
